Time;durP1;ratioP1;P1;durP2;ratioP2;P2;SDS_P1;SDS_P2;PMS_P1;PMS_P2;Temp;Humidity;BMP_temperature;BMP_pressure;BME280_temperature;BME280_humidity;BME280_pressure;Samples;Min_cycle;Max_cycle;Signal;HPM_P1;HPM_P2
2022/03/14 00:01:06;;;;;;;8.80;8.10;;;;;;;9.99;62.30;98779.06;4153096;28;20204;-44
2022/03/14 00:03:10;;;;;;;9.50;8.70;;;;;;;9.96;63.84;98787.75;4124416;28;20214;-45
2022/03/14 00:05:15;;;;;;;8.52;7.82;;;;;;;9.94;64.41;98788.00;4125385;28;20297;-44
2022/03/14 00:07:16;;;;;;;6.03;5.53;;;;;;;9.93;66.47;98793.69;4136377;28;20746;-44
2022/03/14 00:09:18;;;;;;;7.05;6.45;;;;;;;9.89;66.21;98800.72;4153547;28;20234;-44
2022/03/14 00:11:20;;;;;;;6.68;6.18;;;;;;;9.88;67.13;98802.59;4141134;28;20252;-44
2022/03/14 00:13:22;;;;;;;6.90;6.40;;;;;;;9.82;67.70;98816.41;4126821;28;20609;-44
2022/03/14 00:15:28;;;;;;;6.35;5.75;;;;;;;9.85;68.82;98821.38;4153559;28;20256;-44
2022/03/14 00:17:30;;;;;;;6.30;5.80;;;;;;;9.75;69.21;98827.44;4145127;28;20673;-44
2022/03/14 00:19:32;;;;;;;7.32;6.72;;;;;;;9.76;69.65;98836.47;4137164;28;20224;-44
2022/03/14 00:21:39;;;;;;;7.35;6.78;;;;;;;9.83;69.52;98839.94;4154245;28;20204;-44
2022/03/14 00:23:40;;;;;;;6.88;6.28;;;;;;;9.75;70.45;98840.28;4122698;28;20274;-44
2022/03/14 00:25:42;;;;;;;6.55;6.03;;;;;;;9.72;70.32;98846.22;4157232;28;20193;-44
2022/03/14 00:27:44;;;;;;;7.07;6.53;;;;;;;9.66;71.20;98847.16;4140352;28;20253;-45
2022/03/14 00:29:45;;;;;;;7.20;6.70;;;;;;;9.74;71.23;98855.84;4139382;28;20233;-44
2022/03/14 00:31:47;;;;;;;7.63;7.07;;;;;;;9.78;72.31;98867.13;4140764;28;20233;-44
2022/03/14 00:33:50;;;;;;;6.97;6.43;;;;;;;9.70;72.09;98864.75;4127097;28;20300;-44
2022/03/14 00:35:51;;;;;;;7.05;6.55;;;;;;;9.61;73.10;98871.63;4129444;28;20317;-44
2022/03/14 00:37:53;;;;;;;8.82;8.13;;;;;;;9.52;73.90;98864.84;4155737;28;20729;-46
2022/03/14 00:39:56;;;;;;;8.45;7.82;;;;;;;9.41;74.78;98871.13;4123940;28;20249;-44
2022/03/14 00:41:58;;;;;;;9.10;8.20;;;;;;;9.47;73.93;98875.63;4128520;28;20270;-44
2022/03/14 00:43:59;;;;;;;7.40;6.53;;;;;;;9.36;74.74;98884.63;4127078;28;20212;-44
2022/03/14 00:46:01;;;;;;;8.85;7.88;;;;;;;9.36;74.33;98879.19;4138499;28;20377;-44
2022/03/14 00:48:03;;;;;;;6.70;6.20;;;;;;;9.26;73.97;98885.19;4127350;28;20217;-43
2022/03/14 00:50:08;;;;;;;6.22;5.80;;;;;;;9.27;74.15;98891.47;4153646;28;20335;-44
2022/03/14 00:52:10;;;;;;;8.23;7.63;;;;;;;9.24;73.94;98892.81;4121006;28;20382;-44
2022/03/14 00:54:12;;;;;;;6.43;5.97;;;;;;;9.18;74.01;98892.88;4136967;28;20205;-44
2022/03/14 00:56:14;;;;;;;5.32;5.03;;;;;;;9.17;73.98;98896.69;4136810;28;20240;-44
2022/03/14 00:58:16;;;;;;;5.07;4.68;;;;;;;9.19;74.19;98895.38;4137074;28;20296;-44
2022/03/14 01:00:18;;;;;;;6.07;5.57;;;;;;;9.23;73.32;98906.69;4127871;28;20272;-44
2022/03/14 01:02:19;;;;;;;4.15;3.85;;;;;;;9.08;74.14;98911.72;4152212;28;20204;-43
2022/03/14 01:04:21;;;;;;;5.55;3.88;;;;;;;9.09;74.24;98914.22;4106653;28;20225;-44
2022/03/14 01:06:23;;;;;;;4.00;3.67;;;;;;;9.26;73.46;98917.13;4151301;28;20291;-43
2022/03/14 01:08:25;;;;;;;4.15;3.85;;;;;;;9.07;74.44;98920.97;4135729;28;20634;-44
2022/03/14 01:10:28;;;;;;;4.20;3.90;;;;;;;8.99;74.34;98924.00;4138644;28;20280;-44
2022/03/14 01:12:30;;;;;;;2.97;2.67;;;;;;;8.91;74.18;98921.59;4124255;28;20630;-44
2022/03/14 01:14:31;;;;;;;3.20;2.92;;;;;;;9.03;73.67;98927.97;4137131;28;20201;-44
2022/03/14 01:16:34;;;;;;;3.30;3.10;;;;;;;8.90;74.29;98934.41;4122326;28;20237;-44
2022/03/14 01:18:36;;;;;;;3.28;3.03;;;;;;;8.74;74.57;98939.69;4120666;28;20580;-43
2022/03/14 01:20:37;;;;;;;2.72;2.53;;;;;;;8.76;74.30;98932.09;4155158;28;20581;-43
2022/03/14 01:22:39;;;;;;;2.30;2.20;;;;;;;8.69;74.49;98936.78;4154193;28;20209;-43
2022/03/14 01:24:43;;;;;;;2.33;2.20;;;;;;;8.70;74.39;98943.91;4123075;28;20239;-44
2022/03/14 01:26:45;;;;;;;2.47;2.28;;;;;;;8.57;75.31;98952.25;4109153;28;20253;-43
2022/03/14 01:28:48;;;;;;;2.50;2.30;;;;;;;8.56;75.37;98953.31;4151284;28;20295;-43
2022/03/14 01:30:50;;;;;;;2.55;2.35;;;;;;;8.53;75.44;98960.03;4152171;28;20205;-44
2022/03/14 01:32:52;;;;;;;2.00;1.90;;;;;;;8.59;75.13;98958.28;4140411;28;20209;-43
2022/03/14 01:34:54;;;;;;;1.95;1.85;;;;;;;8.65;74.74;98962.84;4120355;28;20644;-43
2022/03/14 01:36:56;;;;;;;2.45;2.28;;;;;;;8.45;75.72;98964.94;4106588;28;20237;-43
2022/03/14 01:39:00;;;;;;;2.47;2.10;;;;;;;8.46;75.63;98967.47;4123860;28;20255;-43
2022/03/14 01:41:01;;;;;;;2.30;2.10;;;;;;;8.49;76.26;98969.72;4136167;28;20284;-43
2022/03/14 01:43:03;;;;;;;3.95;1.88;;;;;;;8.58;75.82;98973.00;4154702;28;20244;-44
2022/03/14 01:45:05;;;;;;;1.90;1.80;;;;;;;8.52;76.02;98979.34;4121942;28;20202;-44
2022/03/14 01:47:07;;;;;;;2.35;2.25;;;;;;;8.51;75.49;98967.63;4151688;28;20251;-44
2022/03/14 01:49:09;;;;;;;1.77;1.67;;;;;;;8.59;75.79;98970.06;4126764;28;20237;-43
2022/03/14 01:51:13;;;;;;;1.88;1.73;;;;;;;8.61;75.51;98967.09;4120947;28;21199;-44
2022/03/14 01:53:15;;;;;;;2.63;1.98;;;;;;;8.70;74.84;98972.00;4152966;28;20240;-43
2022/03/14 01:55:17;;;;;;;2.10;2.00;;;;;;;8.64;75.01;98972.09;4136192;28;20260;-43
2022/03/14 01:57:19;;;;;;;1.95;1.85;;;;;;;8.64;74.66;98969.38;4152710;28;20208;-43
2022/03/14 01:59:21;;;;;;;3.38;2.65;;;;;;;8.54;75.39;98969.06;4121758;28;20729;-43
2022/03/14 02:01:22;;;;;;;2.15;1.88;;;;;;;8.44;75.96;98982.38;4133156;28;20206;-43
2022/03/14 02:03:24;;;;;;;2.08;1.98;;;;;;;8.43;76.16;98980.72;4119637;28;20221;-43
2022/03/14 02:05:28;;;;;;;2.13;2.03;;;;;;;8.31;75.96;98977.06;4125537;28;20225;-44
2022/03/14 02:07:31;;;;;;;1.75;1.65;;;;;;;8.24;76.46;98982.59;4138051;28;20598;-43
2022/03/14 02:09:33;;;;;;;2.15;1.88;;;;;;;8.31;76.17;98987.97;4132742;28;20224;-43
2022/03/14 02:11:34;;;;;;;2.05;1.95;;;;;;;8.26;76.18;98990.50;4151040;28;20225;-43
2022/03/14 02:13:36;;;;;;;1.75;1.65;;;;;;;8.23;76.46;98985.53;4152873;28;20221;-43
2022/03/14 02:15:41;;;;;;;2.88;1.85;;;;;;;8.11;76.36;98990.84;4150258;28;20270;-43
2022/03/14 02:17:42;;;;;;;1.70;1.60;;;;;;;8.15;76.48;98994.78;4129062;28;20296;-43
2022/03/14 02:19:44;;;;;;;1.83;1.73;;;;;;;8.23;76.36;98996.44;4140305;28;20276;-43
2022/03/14 02:21:46;;;;;;;1.88;1.67;;;;;;;8.11;76.33;99000.91;4107365;28;20218;-43
2022/03/14 02:23:47;;;;;;;1.80;1.70;;;;;;;8.00;77.11;98986.09;4121970;28;20286;-43
2022/03/14 02:25:51;;;;;;;2.33;2.10;;;;;;;8.16;75.90;98995.63;4135725;28;20202;-44
2022/03/14 02:27:53;;;;;;;4.15;1.63;;;;;;;8.13;76.57;98986.00;4119753;28;20245;-43
2022/03/14 02:29:54;;;;;;;2.03;1.92;;;;;;;8.14;76.39;98986.81;4120222;28;20264;-43
2022/03/14 02:31:56;;;;;;;2.10;2.00;;;;;;;8.12;76.63;98994.38;4118004;28;20230;-44
2022/03/14 02:33:58;;;;;;;2.35;2.15;;;;;;;8.17;76.68;98991.84;4136203;28;20844;-43
2022/03/14 02:36:00;;;;;;;2.10;2.00;;;;;;;8.18;76.09;98993.50;4116386;28;20677;-43
2022/03/14 02:38:01;;;;;;;2.25;2.00;;;;;;;8.16;76.02;99001.88;4138229;28;20292;-43
2022/03/14 02:40:05;;;;;;;2.15;1.98;;;;;;;8.20;76.50;99002.31;4120427;28;20234;-43
2022/03/14 02:42:07;;;;;;;2.33;2.22;;;;;;;8.14;76.57;99008.63;4152789;28;20655;-43
2022/03/14 02:44:09;;;;;;;3.33;3.13;;;;;;;8.19;76.35;99006.06;4119418;28;20237;-43
2022/03/14 02:46:12;;;;;;;2.47;2.38;;;;;;;8.18;75.71;99016.16;4121320;28;20733;-44
2022/03/14 02:48:14;;;;;;;2.50;2.40;;;;;;;8.10;76.60;99018.31;4151215;28;20700;-43
2022/03/14 02:50:15;;;;;;;5.28;2.47;;;;;;;8.05;76.44;99021.72;4121144;28;20225;-43
2022/03/14 02:52:17;;;;;;;3.08;2.33;;;;;;;8.17;75.73;99030.84;4150581;28;20223;-44
2022/03/14 02:54:19;;;;;;;2.55;2.45;;;;;;;8.26;76.06;99031.41;4125385;28;20213;-44
2022/03/14 02:56:21;;;;;;;2.55;2.35;;;;;;;8.24;76.20;99033.53;4118099;28;20665;-43
2022/03/14 02:58:30;;;;;;;2.35;2.17;;;;;;;8.13;76.10;99034.22;4121445;28;20241;-43
2022/03/14 03:00:35;;;;;;;2.33;2.22;;;;;;;8.14;75.60;99025.81;4151947;28;20233;-43
2022/03/14 03:02:37;;;;;;;2.15;1.95;;;;;;;8.19;75.88;99022.41;4135990;28;20237;-43
2022/03/14 03:04:39;;;;;;;2.22;2.13;;;;;;;8.19;75.56;99022.41;4128511;28;20658;-43
2022/03/14 03:06:42;;;;;;;2.03;1.92;;;;;;;8.16;76.23;99028.31;4155828;28;20205;-44
2022/03/14 03:08:44;;;;;;;3.00;2.83;;;;;;;8.23;76.14;99032.69;4110639;28;20702;-44
2022/03/14 03:10:47;;;;;;;2.58;2.47;;;;;;;8.21;75.93;99036.72;4153802;28;20263;-43
2022/03/14 03:12:49;;;;;;;2.22;2.13;;;;;;;8.11;76.63;99033.59;4138984;28;20248;-43
2022/03/14 03:14:51;;;;;;;2.35;2.25;;;;;;;8.03;76.48;99044.78;4141784;28;20206;-43
2022/03/14 03:16:53;;;;;;;3.88;3.15;;;;;;;8.11;76.42;99047.22;4140904;28;20644;-43
2022/03/14 03:18:55;;;;;;;2.75;2.55;;;;;;;8.13;76.25;99053.28;4142599;28;20213;-43
2022/03/14 03:21:00;;;;;;;2.53;2.38;;;;;;;8.04;76.79;99062.78;4128929;28;20225;-43
2022/03/14 03:23:02;;;;;;;2.15;2.05;;;;;;;8.08;76.25;99069.50;4139049;28;20256;-43
2022/03/14 03:25:06;;;;;;;3.20;3.00;;;;;;;7.95;77.24;99067.66;4155607;28;20209;-43
2022/03/14 03:27:07;;;;;;;2.40;2.30;;;;;;;8.01;76.75;99069.53;4141141;28;20224;-43
2022/03/14 03:29:10;;;;;;;3.45;3.25;;;;;;;8.04;76.51;99068.25;4156405;28;20256;-43
2022/03/14 03:31:16;;;;;;;3.10;2.80;;;;;;;7.96;77.00;99066.63;4155595;28;20647;-43
2022/03/14 03:33:18;;;;;;;3.38;3.05;;;;;;;7.87;76.65;99080.72;4120209;28;20249;-43
2022/03/14 03:35:20;;;;;;;2.72;2.47;;;;;;;7.88;76.60;99085.94;4126538;28;20329;-43
2022/03/14 03:37:22;;;;;;;2.60;2.40;;;;;;;7.91;76.64;99090.13;4139254;28;20851;-44
2022/03/14 03:39:23;;;;;;;4.07;3.78;;;;;;;7.87;76.63;99105.25;4122983;28;20745;-44
2022/03/14 03:41:26;;;;;;;2.85;2.65;;;;;;;7.84;76.32;99111.97;4128828;28;20547;-43
2022/03/14 03:43:31;;;;;;;4.30;4.10;;;;;;;7.86;76.49;99109.03;4128896;28;20268;-45
2022/03/14 03:45:33;;;;;;;3.53;3.33;;;;;;;7.93;75.61;99116.13;4128433;28;20733;-51
2022/03/14 03:47:35;;;;;;;4.25;3.95;;;;;;;8.04;75.72;99123.59;4142489;28;20228;-43
2022/03/14 03:49:38;;;;;;;3.50;3.22;;;;;;;7.78;75.82;99133.81;4128833;28;20317;-43
2022/03/14 03:51:40;;;;;;;3.65;3.45;;;;;;;7.88;75.93;99129.56;4127597;28;20210;-43
2022/03/14 03:53:41;;;;;;;3.28;3.08;;;;;;;7.74;76.16;99151.63;4129365;28;20244;-44
2022/03/14 03:55:43;;;;;;;3.90;3.70;;;;;;;7.80;76.21;99158.94;4112773;28;20226;-44
2022/03/14 03:57:45;;;;;;;4.57;4.28;;;;;;;7.78;76.20;99167.34;4141553;28;20267;-44
2022/03/14 03:59:46;;;;;;;3.30;3.05;;;;;;;7.70;76.32;99180.34;4128203;28;20261;-43
2022/03/14 04:01:48;;;;;;;3.85;3.55;;;;;;;7.63;76.21;99180.38;4128414;28;20657;-43
2022/03/14 04:03:54;;;;;;;3.83;3.60;;;;;;;7.55;75.90;99182.50;4154664;28;20631;-44
2022/03/14 04:06:01;;;;;;;3.55;3.25;;;;;;;7.50;76.10;99190.47;4123176;28;20198;-43
2022/03/14 04:08:03;;;;;;;3.30;3.10;;;;;;;7.50;76.38;99196.75;4122006;28;20554;-43
2022/03/14 04:10:04;;;;;;;3.40;3.17;;;;;;;7.44;76.17;99185.88;4119201;28;20238;-44
2022/03/14 04:12:07;;;;;;;2.78;2.58;;;;;;;7.46;76.19;99190.06;4122002;28;20217;-43
2022/03/14 04:14:10;;;;;;;2.65;2.45;;;;;;;7.43;75.73;99201.38;4125277;28;20270;-44
2022/03/14 04:16:16;;;;;;;3.00;2.33;;;;;;;7.56;75.35;99205.97;4123030;28;20697;-44
2022/03/14 04:18:19;;;;;;;3.05;2.20;;;;;;;7.53;75.47;99200.94;4140656;28;20213;-44
2022/03/14 04:20:23;;;;;;;2.13;1.92;;;;;;;7.42;74.85;99207.88;4126355;28;20241;-43
2022/03/14 04:22:25;;;;;;;3.20;2.85;;;;;;;7.42;75.30;99210.59;4152832;28;20221;-44
2022/03/14 04:24:27;;;;;;;2.92;1.90;;;;;;;7.39;75.16;99205.59;4154683;28;20209;-43
2022/03/14 04:26:29;;;;;;;2.17;1.98;;;;;;;7.36;75.35;99206.00;4154126;28;20194;-44
2022/03/14 04:28:30;;;;;;;2.20;2.00;;;;;;;7.40;75.51;99200.97;4128070;28;20297;-44
2022/03/14 04:30:32;;;;;;;3.53;2.95;;;;;;;7.41;75.76;99219.00;4154071;28;20236;-44
2022/03/14 04:32:34;;;;;;;2.50;2.22;;;;;;;7.44;75.03;99219.41;4123243;28;20233;-44
2022/03/14 04:34:39;;;;;;;3.60;3.33;;;;;;;7.41;74.94;99221.72;4138227;28;20214;-43
2022/03/14 04:36:41;;;;;;;4.43;3.83;;;;;;;7.38;75.28;99211.25;4136816;28;20262;-44
2022/03/14 04:38:43;;;;;;;4.30;3.92;;;;;;;7.31;75.41;99213.16;4120791;28;20240;-44
2022/03/14 04:40:44;;;;;;;4.35;3.95;;;;;;;7.39;75.15;99215.63;4122380;28;20232;-44
2022/03/14 04:42:46;;;;;;;4.32;4.03;;;;;;;7.53;74.68;99218.13;4153746;28;20257;-44
2022/03/14 04:44:51;;;;;;;6.25;5.30;;;;;;;7.54;74.95;99218.94;4123320;28;20206;-44
2022/03/14 04:46:53;;;;;;;5.10;4.70;;;;;;;7.45;75.02;99212.06;4140528;28;20228;-43
2022/03/14 04:48:55;;;;;;;5.15;4.65;;;;;;;7.47;74.63;99212.69;4140752;28;20240;-43
2022/03/14 04:50:57;;;;;;;5.50;5.00;;;;;;;7.29;75.43;99220.69;4122466;28;20213;-44
2022/03/14 04:52:59;;;;;;;6.10;5.25;;;;;;;7.25;75.47;99216.72;4121897;28;20214;-43
2022/03/14 04:55:00;;;;;;;6.90;5.68;;;;;;;7.35;75.38;99217.13;4125608;28;20301;-44
2022/03/14 04:57:02;;;;;;;5.68;5.18;;;;;;;7.47;75.30;99216.25;4119779;28;20788;-44
2022/03/14 04:59:04;;;;;;;5.57;5.07;;;;;;;7.52;75.50;99227.34;4123010;28;20251;-44
2022/03/14 05:01:06;;;;;;;4.82;4.43;;;;;;;7.54;75.20;99235.28;4134436;28;20212;-44
2022/03/14 05:03:09;;;;;;;5.18;4.55;;;;;;;7.60;75.18;99239.88;4155505;28;20235;-43
2022/03/14 05:05:11;;;;;;;6.97;4.57;;;;;;;7.47;74.82;99239.91;4119644;28;20846;-44
2022/03/14 05:07:13;;;;;;;4.90;4.50;;;;;;;7.53;74.98;99239.06;4153770;28;20205;-44
2022/03/14 05:09:15;;;;;;;5.25;4.85;;;;;;;7.39;75.16;99240.13;4152558;28;20592;-44
2022/03/14 05:11:17;;;;;;;5.15;4.65;;;;;;;7.47;75.50;99239.91;4134591;28;20720;-44
2022/03/14 05:13:21;;;;;;;6.90;4.85;;;;;;;7.47;75.27;99245.34;4150651;28;22086;-43
2022/03/14 05:15:22;;;;;;;6.20;5.55;;;;;;;7.40;75.32;99244.53;4121054;28;20222;-44
2022/03/14 05:17:25;;;;;;;8.88;5.80;;;;;;;7.37;75.72;99247.69;4153777;28;20233;-44
2022/03/14 05:19:26;;;;;;;8.18;6.03;;;;;;;7.35;75.66;99257.97;4121738;28;20257;-44
2022/03/14 05:21:28;;;;;;;7.72;5.30;;;;;;;7.33;75.30;99254.59;4156927;28;20197;-44
2022/03/14 05:23:30;;;;;;;7.05;6.45;;;;;;;7.29;75.71;99266.97;4122778;28;20254;-43
2022/03/14 05:25:32;;;;;;;7.13;6.07;;;;;;;7.33;75.14;99271.78;4122824;28;20217;-43
2022/03/14 05:27:34;;;;;;;6.85;6.13;;;;;;;7.22;75.59;99268.88;4154603;28;20506;-43
2022/03/14 05:29:36;;;;;;;17.65;7.22;;;;;;;7.29;75.59;99275.13;4138751;28;20276;-44
2022/03/14 05:31:37;;;;;;;8.82;5.35;;;;;;;7.30;75.18;99268.63;4139252;28;21073;-44
2022/03/14 05:33:39;;;;;;;7.22;6.03;;;;;;;7.17;76.19;99272.19;4124130;28;20210;-44
2022/03/14 05:35:41;;;;;;;7.70;6.82;;;;;;;7.20;75.75;99281.81;4152251;28;20233;-44
2022/03/14 05:37:43;;;;;;;8.88;7.50;;;;;;;7.23;75.42;99282.25;4121842;28;21721;-43
2022/03/14 05:39:45;;;;;;;7.05;6.35;;;;;;;7.24;75.43;99299.41;4125685;28;20228;-43
2022/03/14 05:41:47;;;;;;;7.20;6.50;;;;;;;7.17;76.16;99306.75;4138989;28;20232;-44
2022/03/14 05:43:49;;;;;;;6.35;5.72;;;;;;;7.25;75.72;99307.38;4154257;28;20282;-44
2022/03/14 05:45:51;;;;;;;7.60;6.72;;;;;;;7.31;75.91;99302.97;4123526;28;20241;-44
2022/03/14 05:47:53;;;;;;;8.43;6.88;;;;;;;7.34;75.38;99303.41;4108872;28;20210;-44
2022/03/14 05:49:54;;;;;;;10.48;7.13;;;;;;;7.29;75.60;99303.19;4153108;28;20248;-44
2022/03/14 05:51:56;;;;;;;12.20;6.40;;;;;;;7.26;75.08;99313.66;4149481;28;21138;-44
2022/03/14 05:53:58;;;;;;;7.22;6.13;;;;;;;7.25;75.60;99317.41;4127317;28;20285;-44
2022/03/14 05:56:11;;;;;;;8.68;7.40;;;;;;;7.29;75.28;99324.94;4137949;28;20263;-44
2022/03/14 05:58:13;;;;;;;9.75;7.85;;;;;;;7.22;75.37;99321.41;4151913;28;20204;-44
2022/03/14 06:00:19;;;;;;;8.15;7.45;;;;;;;7.21;75.83;99327.06;4156236;28;20307;-44
2022/03/14 06:02:22;;;;;;;8.50;7.35;;;;;;;7.16;75.74;99329.56;4120593;28;20209;-44
2022/03/14 06:04:34;;;;;;;9.18;8.30;;;;;;;7.23;75.34;99327.69;4141055;28;20236;-44
2022/03/14 06:06:37;;;;;;;9.30;7.57;;;;;;;7.25;75.44;99334.59;4122186;28;20206;-44
2022/03/14 06:08:39;;;;;;;15.55;9.00;;;;;;;7.25;75.93;99344.66;4133583;28;20623;-44
2022/03/14 06:10:42;;;;;;;14.45;8.13;;;;;;;7.28;75.42;99344.25;4119707;28;20253;-43
2022/03/14 06:12:44;;;;;;;14.55;9.43;;;;;;;7.31;75.24;99339.22;4151071;28;20224;-44
2022/03/14 06:14:46;;;;;;;15.02;9.45;;;;;;;7.40;74.64;99348.00;4117812;28;20210;-44
2022/03/14 06:16:48;;;;;;;12.88;9.10;;;;;;;7.41;75.29;99357.84;4121141;28;20226;-43
2022/03/14 06:18:50;;;;;;;8.68;7.82;;;;;;;7.32;74.91;99351.78;4138678;28;20213;-44
2022/03/14 06:20:52;;;;;;;8.20;6.70;;;;;;;7.37;74.55;99353.88;4153966;28;20205;-45
2022/03/14 06:22:54;;;;;;;10.82;8.35;;;;;;;7.33;75.37;99352.59;4123867;28;20237;-44
2022/03/14 06:24:55;;;;;;;9.00;7.68;;;;;;;7.35;75.35;99366.84;4137762;28;20213;-45
2022/03/14 06:26:58;;;;;;;8.18;7.45;;;;;;;7.42;74.76;99370.41;4136617;28;20209;-43
2022/03/14 06:29:00;;;;;;;9.68;8.68;;;;;;;7.34;74.38;99365.16;4153670;28;20232;-43
2022/03/14 06:31:02;;;;;;;8.57;7.75;;;;;;;7.42;75.07;99364.97;4126480;28;20202;-43
2022/03/14 06:33:14;;;;;;;7.30;6.70;;;;;;;7.30;75.13;99374.81;4125452;28;20202;-43
2022/03/14 06:35:17;;;;;;;10.73;8.35;;;;;;;7.25;75.25;99371.88;4126747;28;20237;-44
2022/03/14 06:37:19;;;;;;;8.43;6.88;;;;;;;7.31;74.73;99381.91;4127060;28;20226;-43
2022/03/14 06:39:21;;;;;;;12.68;7.45;;;;;;;7.28;74.83;99382.34;4141430;28;20643;-43
2022/03/14 06:41:24;;;;;;;9.95;7.28;;;;;;;7.38;74.18;99377.31;4152226;28;20295;-44
2022/03/14 06:43:37;;;;;;;17.02;7.50;;;;;;;7.37;74.29;99383.81;4139527;28;20197;-43
2022/03/14 06:45:39;;;;;;;9.35;6.72;;;;;;;7.33;74.63;99379.81;4120387;28;20202;-43
2022/03/14 06:47:41;;;;;;;14.23;7.10;;;;;;;7.43;74.61;99391.16;4126390;28;20244;-43
2022/03/14 06:49:44;;;;;;;12.57;7.55;;;;;;;7.32;74.84;99386.31;4126195;28;20218;-44
2022/03/14 06:51:47;;;;;;;7.10;6.40;;;;;;;7.34;74.65;99392.38;4140134;28;20255;-44
2022/03/14 06:53:49;;;;;;;18.23;7.30;;;;;;;7.29;75.39;99392.19;4121035;28;20629;-44
2022/03/14 06:55:54;;;;;;;7.85;6.93;;;;;;;7.37;74.56;99402.88;4123043;28;20205;-44
2022/03/14 06:57:56;;;;;;;17.40;7.30;;;;;;;7.45;74.70;99406.22;4155380;28;20781;-44
2022/03/14 06:59:58;;;;;;;8.55;6.88;;;;;;;7.49;74.19;99395.75;4154017;28;20231;-44
2022/03/14 07:02:00;;;;;;;9.38;7.20;;;;;;;7.43;74.28;99402.03;4137089;28;20255;-44
2022/03/14 07:04:05;;;;;;;6.07;5.57;;;;;;;7.49;74.22;99401.22;4155437;28;20260;-44
2022/03/14 07:06:06;;;;;;;11.45;6.75;;;;;;;7.46;74.20;99397.00;4154882;28;20247;-43
2022/03/14 07:08:11;;;;;;;11.38;7.50;;;;;;;7.49;74.57;99406.66;4105852;28;20238;-43
2022/03/14 07:10:17;;;;;;;13.07;7.32;;;;;;;7.60;74.17;99403.28;4123300;28;20272;-43
2022/03/14 07:12:18;;;;;;;9.90;8.40;;;;;;;7.63;74.75;99411.06;4156634;28;20608;-44
2022/03/14 07:14:21;;;;;;;9.48;6.35;;;;;;;7.61;74.33;99422.16;4140150;28;20668;-44
2022/03/14 07:16:23;;;;;;;8.18;6.40;;;;;;;7.69;73.91;99426.56;4155020;28;20209;-44
2022/03/14 07:18:25;;;;;;;11.02;5.72;;;;;;;7.54;73.62;99431.34;4122240;28;20232;-44
2022/03/14 07:20:34;;;;;;;11.60;6.22;;;;;;;7.58;73.76;99427.19;4142630;28;20232;-44
2022/03/14 07:23:02;;;;;;;6.20;5.63;;;;;;;7.57;73.97;99431.78;4140555;28;20213;-44
2022/03/14 07:25:06;;;;;;;7.65;5.88;;;;;;;7.66;73.38;99437.88;4118833;28;20237;-44
2022/03/14 07:27:07;;;;;;;8.02;5.47;;;;;;;7.57;73.69;99450.03;4119766;28;20218;-44
2022/03/14 07:29:19;;;;;;;5.90;5.30;;;;;;;7.56;73.60;99445.63;4137224;28;20289;-44
2022/03/14 07:31:21;;;;;;;7.75;5.05;;;;;;;7.56;73.33;99451.06;4156081;28;20205;-44
2022/03/14 07:33:23;;;;;;;7.00;4.70;;;;;;;7.63;73.63;99455.47;4129189;28;20206;-44
2022/03/14 07:35:26;;;;;;;10.50;5.28;;;;;;;7.63;73.57;99458.19;4141509;28;20700;-45
2022/03/14 07:37:27;;;;;;;5.60;5.10;;;;;;;7.66;73.78;99454.22;4129314;28;20264;-44
2022/03/14 07:39:29;;;;;;;11.05;5.30;;;;;;;7.78;72.86;99466.16;4155663;28;20235;-44
2022/03/14 07:41:31;;;;;;;5.53;4.88;;;;;;;7.70;73.54;99458.19;4157754;28;20676;-44
2022/03/14 07:43:39;;;;;;;5.80;4.35;;;;;;;7.74;72.63;99471.19;4143643;28;20201;-43
2022/03/14 07:45:41;;;;;;;6.47;4.75;;;;;;;7.78;73.19;99471.63;4153379;28;20267;-44
2022/03/14 07:47:43;;;;;;;4.90;4.45;;;;;;;7.83;72.94;99477.28;4121837;28;20216;-44
2022/03/14 07:49:45;;;;;;;7.20;5.65;;;;;;;7.81;73.01;99476.66;4127931;28;20226;-44
2022/03/14 07:51:47;;;;;;;4.80;4.30;;;;;;;7.75;72.61;99485.66;4154325;28;20347;-43
2022/03/14 07:53:49;;;;;;;7.13;5.32;;;;;;;7.73;72.65;99491.31;4126519;28;20209;-43
2022/03/14 07:55:53;;;;;;;7.40;6.32;;;;;;;7.68;72.80;99493.00;4153671;28;20231;-43
2022/03/14 07:58:01;;;;;;;7.45;4.40;;;;;;;7.71;72.88;99501.59;4137638;28;20214;-44
2022/03/14 08:00:08;;;;;;;6.55;5.97;;;;;;;7.77;72.72;99502.63;4140157;28;20320;-42
2022/03/14 08:02:10;;;;;;;7.68;5.07;;;;;;;7.68;73.54;99507.44;4122233;28;20737;-42
2022/03/14 08:04:11;;;;;;;8.48;5.72;;;;;;;7.71;72.90;99506.19;4154666;28;20201;-43
2022/03/14 08:06:19;;;;;;;9.73;5.55;;;;;;;7.71;72.62;99503.47;4122011;28;20202;-44
2022/03/14 08:08:25;;;;;;;13.18;6.13;;;;;;;7.77;73.43;99517.09;4139639;28;20677;-43
2022/03/14 08:10:26;;;;;;;7.82;7.07;;;;;;;7.82;73.23;99519.19;4143809;28;20863;-43
2022/03/14 08:12:28;;;;;;;7.72;5.80;;;;;;;7.78;72.84;99521.50;4140836;28;20681;-43
2022/03/14 08:14:43;;;;;;;8.95;5.00;;;;;;;7.80;73.01;99518.53;4130168;28;20206;-43
2022/03/14 08:16:45;;;;;;;8.32;6.10;;;;;;;7.80;72.76;99529.44;4116791;28;20227;-43
2022/03/14 08:18:49;;;;;;;6.70;6.03;;;;;;;7.86;72.74;99531.34;4155219;28;20287;-43
2022/03/14 08:20:56;;;;;;;6.32;5.40;;;;;;;7.86;72.64;99544.97;4139712;28;20212;-43
2022/03/14 08:23:06;;;;;;;5.05;4.40;;;;;;;7.83;72.42;99537.22;4128393;28;20240;-43
2022/03/14 08:25:09;;;;;;;6.93;4.60;;;;;;;7.85;72.51;99538.69;4153105;28;20220;-43
2022/03/14 08:27:11;;;;;;;4.93;4.28;;;;;;;7.84;73.30;99537.03;4122764;28;21192;-43
2022/03/14 08:29:13;;;;;;;10.57;4.70;;;;;;;7.93;72.58;99545.81;4140443;28;20257;-44
2022/03/14 08:31:17;;;;;;;4.80;4.40;;;;;;;7.90;72.11;99530.72;4120876;28;20674;-43
2022/03/14 08:33:21;;;;;;;5.38;4.55;;;;;;;7.93;72.41;99548.53;4154052;28;20211;-44
2022/03/14 08:35:24;;;;;;;9.35;4.90;;;;;;;8.11;72.38;99543.31;4127500;28;20217;-44
2022/03/14 08:37:30;;;;;;;4.10;3.72;;;;;;;8.19;71.46;99551.28;4127590;28;20333;-44
2022/03/14 08:39:33;;;;;;;5.68;3.67;;;;;;;8.17;71.65;99553.38;4109037;28;20230;-44
2022/03/14 08:41:36;;;;;;;6.78;3.28;;;;;;;8.31;72.06;99555.09;4137778;28;20265;-44
2022/03/14 08:43:38;;;;;;;6.47;4.90;;;;;;;8.33;71.62;99555.72;4121654;28;20214;-44
2022/03/14 08:45:50;;;;;;;6.53;4.05;;;;;;;8.36;71.81;99563.50;4122115;28;20659;-44
2022/03/14 08:47:53;;;;;;;5.22;4.72;;;;;;;8.32;71.05;99559.50;4139304;28;20216;-44
2022/03/14 08:49:54;;;;;;;4.72;4.22;;;;;;;8.33;70.75;99559.28;4153443;28;20224;-43
2022/03/14 08:51:59;;;;;;;5.90;3.78;;;;;;;8.18;71.32;99560.50;4141182;28;20206;-44
2022/03/14 08:54:01;;;;;;;7.93;5.10;;;;;;;8.32;71.35;99567.69;4138060;28;20275;-43
2022/03/14 08:56:03;;;;;;;5.43;4.97;;;;;;;8.34;70.74;99562.88;4121849;28;20741;-43
2022/03/14 08:58:05;;;;;;;6.13;5.00;;;;;;;8.42;71.18;99565.38;4137971;28;20235;-44
2022/03/14 09:00:19;;;;;;;7.10;4.60;;;;;;;8.37;70.98;99568.75;4125576;28;20234;-43
2022/03/14 09:02:21;;;;;;;6.80;5.30;;;;;;;8.51;70.85;99577.75;4140373;28;20198;-44
2022/03/14 09:04:23;;;;;;;4.05;3.63;;;;;;;8.58;70.22;99568.53;4122991;28;20670;-44
2022/03/14 09:06:25;;;;;;;5.03;4.20;;;;;;;8.49;70.38;99580.66;4129869;28;20479;-44
2022/03/14 09:08:36;;;;;;;6.35;4.50;;;;;;;8.58;70.25;99584.88;4122957;28;20238;-46
2022/03/14 09:10:38;;;;;;;4.63;4.28;;;;;;;8.77;70.03;99584.03;4139340;28;20228;-48
2022/03/14 09:12:42;;;;;;;7.78;4.03;;;;;;;9.05;70.24;99591.94;4153719;28;20228;-47
2022/03/14 09:14:44;;;;;;;12.98;4.57;;;;;;;9.04;69.48;99601.16;4141271;28;20206;-49
2022/03/14 09:16:47;;;;;;;6.13;4.35;;;;;;;9.07;68.89;99598.00;4153483;28;20221;-48
2022/03/14 09:18:49;;;;;;;3.42;3.20;;;;;;;9.21;68.11;99602.41;4121433;28;20277;-47
2022/03/14 09:20:52;;;;;;;8.07;5.38;;;;;;;9.17;67.91;99606.59;4119467;28;20253;-46
2022/03/14 09:22:57;;;;;;;5.18;3.95;;;;;;;9.12;68.41;99592.75;4124348;28;20604;-47
2022/03/14 09:25:03;;;;;;;4.20;2.92;;;;;;;9.10;68.80;99605.78;4152791;28;20209;-47
2022/03/14 09:27:05;;;;;;;3.47;3.17;;;;;;;9.19;67.63;99599.88;4126003;28;20230;-46
2022/03/14 09:29:08;;;;;;;3.30;3.00;;;;;;;9.25;67.68;99609.09;4121674;28;20213;-47
2022/03/14 09:31:14;;;;;;;10.07;4.00;;;;;;;9.69;67.52;99606.41;4137651;28;20205;-48
2022/03/14 09:33:16;;;;;;;5.72;3.35;;;;;;;9.68;66.54;99607.47;4121570;28;20198;-47
2022/03/14 09:35:18;;;;;;;3.45;2.55;;;;;;;9.73;66.18;99602.16;4126638;28;20608;-49
2022/03/14 09:37:20;;;;;;;5.35;2.60;;;;;;;9.95;65.81;99617.19;4154397;28;20236;-47
2022/03/14 09:39:22;;;;;;;3.35;3.03;;;;;;;9.88;65.46;99600.00;4127902;28;20309;-47
2022/03/14 09:41:27;;;;;;;3.55;2.97;;;;;;;10.18;65.39;99612.03;4140700;28;20649;-47
2022/03/14 09:43:37;;;;;;;4.47;2.13;;;;;;;10.15;64.59;99610.56;4154177;28;20215;-47
2022/03/14 09:45:39;;;;;;;3.25;2.50;;;;;;;10.28;64.47;99620.59;4120642;28;20207;-47